sensor_id;sensor_type;location;lat;lon;timestamp;temperature;humidity
74296;SHT30;62690;48.420;-4.512;2022-08-20T14:07:46;24.50;46.83
74296;SHT30;62690;48.420;-4.512;2022-08-20T14:10:18;25.07;44.74
74296;SHT30;62690;48.420;-4.512;2022-08-20T14:12:44;25.50;43.84
74296;SHT30;62690;48.420;-4.512;2022-08-20T14:15:10;25.86;43.03
74296;SHT30;62690;48.420;-4.512;2022-08-20T14:17:38;26.12;42.57
74296;SHT30;62690;48.420;-4.512;2022-08-20T14:20:12;26.44;42.28
74296;SHT30;62690;48.420;-4.512;2022-08-20T14:22:38;26.69;40.87
74296;SHT30;62690;48.420;-4.512;2022-08-20T14:25:05;26.89;41.12
74296;SHT30;62690;48.420;-4.512;2022-08-20T14:27:31;27.18;39.70
74296;SHT30;62690;48.420;-4.512;2022-08-20T14:29:58;27.36;39.41
74296;SHT30;62690;48.420;-4.512;2022-08-20T14:32:24;27.50;39.66
74296;SHT30;62690;48.420;-4.512;2022-08-20T14:34:49;27.70;38.46
74296;SHT30;62690;48.420;-4.512;2022-08-20T14:37:21;27.83;38.71
74296;SHT30;62690;48.420;-4.512;2022-08-20T14:39:49;27.80;39.20
74296;SHT30;62690;48.420;-4.512;2022-08-20T14:42:16;27.78;38.45
74296;SHT30;62690;48.420;-4.512;2022-08-20T14:44:42;27.73;38.44
74296;SHT30;62690;48.420;-4.512;2022-08-20T14:47:20;27.66;38.67
74296;SHT30;62690;48.420;-4.512;2022-08-20T14:49:48;27.56;38.35
74296;SHT30;62690;48.420;-4.512;2022-08-20T14:52:15;27.51;38.47
74296;SHT30;62690;48.420;-4.512;2022-08-20T14:54:42;27.37;38.76
74296;SHT30;62690;48.420;-4.512;2022-08-20T14:57:08;27.22;38.88
74296;SHT30;62690;48.420;-4.512;2022-08-20T14:59:34;27.13;39.72
74296;SHT30;62690;48.420;-4.512;2022-08-20T15:02:03;27.09;39.97
74296;SHT30;62690;48.420;-4.512;2022-08-20T15:04:28;27.03;38.88
74296;SHT30;62690;48.420;-4.512;2022-08-20T15:06:54;26.99;38.67
74296;SHT30;62690;48.420;-4.512;2022-08-20T15:09:19;26.92;39.31
74296;SHT30;62690;48.420;-4.512;2022-08-20T15:11:45;26.82;39.49
74296;SHT30;62690;48.420;-4.512;2022-08-20T15:14:10;26.77;39.81
74296;SHT30;62690;48.420;-4.512;2022-08-20T15:16:35;26.85;39.61
74296;SHT30;62690;48.420;-4.512;2022-08-20T15:19:01;27.06;39.16
74296;SHT30;62690;48.420;-4.512;2022-08-20T15:21:27;27.36;39.13
74296;SHT30;62690;48.420;-4.512;2022-08-20T15:23:53;27.71;38.50
74296;SHT30;62690;48.420;-4.512;2022-08-20T15:26:18;28.08;37.66
74296;SHT30;62690;48.420;-4.512;2022-08-20T15:28:44;28.42;36.81
74296;SHT30;62690;48.420;-4.512;2022-08-20T15:31:10;28.77;36.07
74296;SHT30;62690;48.420;-4.512;2022-08-20T15:33:37;29.02;35.63
74296;SHT30;62690;48.420;-4.512;2022-08-20T15:36:04;29.26;35.37
74296;SHT30;62690;48.420;-4.512;2022-08-20T15:38:30;29.51;34.93
74296;SHT30;62690;48.420;-4.512;2022-08-20T15:40:57;29.78;34.23
74296;SHT30;62690;48.420;-4.512;2022-08-20T15:43:25;30.02;33.65
74296;SHT30;62690;48.420;-4.512;2022-08-20T15:45:51;30.33;34.93
74296;SHT30;62690;48.420;-4.512;2022-08-20T15:48:19;30.59;32.25
74296;SHT30;62690;48.420;-4.512;2022-08-20T15:54:00;31.19;31.99
74296;SHT30;62690;48.420;-4.512;2022-08-20T15:56:32;31.46;31.15
74296;SHT30;62690;48.420;-4.512;2022-08-20T16:07:02;31.77;30.38
74296;SHT30;62690;48.420;-4.512;2022-08-20T16:09:48;31.77;30.99
74296;SHT30;62690;48.420;-4.512;2022-08-20T16:12:34;31.77;30.85
74296;SHT30;62690;48.420;-4.512;2022-08-20T16:15:09;31.70;30.60
74296;SHT30;62690;48.420;-4.512;2022-08-20T16:17:53;31.59;30.46
74296;SHT30;62690;48.420;-4.512;2022-08-20T16:20:27;31.59;30.74
74296;SHT30;62690;48.420;-4.512;2022-08-20T16:22:53;31.76;30.70
74296;SHT30;62690;48.420;-4.512;2022-08-20T16:25:18;31.97;31.24
74296;SHT30;62690;48.420;-4.512;2022-08-20T16:28:03;32.26;30.41
74296;SHT30;62690;48.420;-4.512;2022-08-20T16:33:04;32.72;29.22
74296;SHT30;62690;48.420;-4.512;2022-08-20T16:35:37;32.89;29.48
74296;SHT30;62690;48.420;-4.512;2022-08-20T16:40:46;32.72;29.64
74296;SHT30;62690;48.420;-4.512;2022-08-20T16:43:22;32.54;29.01
74296;SHT30;62690;48.420;-4.512;2022-08-20T16:46:11;32.51;29.71
74296;SHT30;62690;48.420;-4.512;2022-08-20T16:48:45;32.61;29.53
74296;SHT30;62690;48.420;-4.512;2022-08-20T16:51:17;32.54;29.16
74296;SHT30;62690;48.420;-4.512;2022-08-20T16:53:44;32.40;29.54
74296;SHT30;62690;48.420;-4.512;2022-08-20T16:56:09;32.24;29.66
74296;SHT30;62690;48.420;-4.512;2022-08-20T16:58:35;31.96;29.94
74296;SHT30;62690;48.420;-4.512;2022-08-20T17:01:13;31.58;30.73
74296;SHT30;62690;48.420;-4.512;2022-08-20T17:03:48;31.18;31.86
74296;SHT30;62690;48.420;-4.512;2022-08-20T17:06:26;30.76;32.15
74296;SHT30;62690;48.420;-4.512;2022-08-20T17:08:52;30.37;32.46
74296;SHT30;62690;48.420;-4.512;2022-08-20T17:11:27;30.04;33.64
74296;SHT30;62690;48.420;-4.512;2022-08-20T17:14:14;29.74;33.88
74296;SHT30;62690;48.420;-4.512;2022-08-20T17:16:47;29.47;34.32
74296;SHT30;62690;48.420;-4.512;2022-08-20T17:19:28;29.18;34.86
74296;SHT30;62690;48.420;-4.512;2022-08-20T17:21:55;28.95;35.34
74296;SHT30;62690;48.420;-4.512;2022-08-20T17:24:27;28.70;35.72
74296;SHT30;62690;48.420;-4.512;2022-08-20T17:27:00;28.49;36.12
74296;SHT30;62690;48.420;-4.512;2022-08-20T17:29:30;28.37;36.28
74296;SHT30;62690;48.420;-4.512;2022-08-20T17:31:59;28.22;36.53
74296;SHT30;62690;48.420;-4.512;2022-08-20T17:34:28;28.11;36.73
74296;SHT30;62690;48.420;-4.512;2022-08-20T17:37:06;28.01;36.94
74296;SHT30;62690;48.420;-4.512;2022-08-20T17:39:32;27.87;37.22
74296;SHT30;62690;48.420;-4.512;2022-08-20T17:42:08;27.84;37.51
74296;SHT30;62690;48.420;-4.512;2022-08-20T17:44:36;27.91;37.46
74296;SHT30;62690;48.420;-4.512;2022-08-20T17:47:06;27.94;37.69
74296;SHT30;62690;48.420;-4.512;2022-08-20T17:49:35;27.94;37.43
74296;SHT30;62690;48.420;-4.512;2022-08-20T17:52:04;27.88;37.55
74296;SHT30;62690;48.420;-4.512;2022-08-20T17:54:37;27.77;37.59
74296;SHT30;62690;48.420;-4.512;2022-08-20T17:57:08;27.58;37.75
74296;SHT30;62690;48.420;-4.512;2022-08-20T17:59:40;27.45;38.10
74296;SHT30;62690;48.420;-4.512;2022-08-20T18:02:09;27.27;38.44
74296;SHT30;62690;48.420;-4.512;2022-08-20T18:04:35;27.12;38.88
74296;SHT30;62690;48.420;-4.512;2022-08-20T18:09:42;26.75;39.43
74296;SHT30;62690;48.420;-4.512;2022-08-20T18:12:40;26.65;39.92
74296;SHT30;62690;48.420;-4.512;2022-08-20T18:15:21;26.54;40.27
74296;SHT30;62690;48.420;-4.512;2022-08-20T18:23:10;26.37;41.00
74296;SHT30;62690;48.420;-4.512;2022-08-20T18:25:51;26.33;40.88
74296;SHT30;62690;48.420;-4.512;2022-08-20T18:28:24;26.28;41.43
74296;SHT30;62690;48.420;-4.512;2022-08-20T18:30:56;26.28;41.59
74296;SHT30;62690;48.420;-4.512;2022-08-20T18:33:34;26.47;41.36
74296;SHT30;62690;48.420;-4.512;2022-08-20T18:38:35;27.00;40.75
74296;SHT30;62690;48.420;-4.512;2022-08-20T18:43:31;27.36;40.08
74296;SHT30;62690;48.420;-4.512;2022-08-20T18:46:19;27.33;40.35
74296;SHT30;62690;48.420;-4.512;2022-08-20T18:49:00;27.16;40.47
74296;SHT30;62690;48.420;-4.512;2022-08-20T18:51:40;27.00;40.72
74296;SHT30;62690;48.420;-4.512;2022-08-20T18:54:07;26.79;41.00
74296;SHT30;62690;48.420;-4.512;2022-08-20T18:56:40;26.55;41.35
74296;SHT30;62690;48.420;-4.512;2022-08-20T18:59:11;26.28;41.97
74296;SHT30;62690;48.420;-4.512;2022-08-20T19:01:39;26.04;42.38
74296;SHT30;62690;48.420;-4.512;2022-08-20T19:04:27;25.89;42.52
74296;SHT30;62690;48.420;-4.512;2022-08-20T19:07:02;25.68;42.90
74296;SHT30;62690;48.420;-4.512;2022-08-20T19:10:04;25.50;43.23
74296;SHT30;62690;48.420;-4.512;2022-08-20T19:15:38;25.15;44.07
74296;SHT30;62690;48.420;-4.512;2022-08-20T19:18:07;25.04;44.65
74296;SHT30;62690;48.420;-4.512;2022-08-20T19:20:37;24.92;44.98
74296;SHT30;62690;48.420;-4.512;2022-08-20T19:23:12;24.77;45.28
74296;SHT30;62690;48.420;-4.512;2022-08-20T19:25:50;24.67;45.17
74296;SHT30;62690;48.420;-4.512;2022-08-20T19:28:24;24.56;45.80
74296;SHT30;62690;48.420;-4.512;2022-08-20T19:30:56;24.44;45.80
74296;SHT30;62690;48.420;-4.512;2022-08-20T19:33:31;24.36;46.16
74296;SHT30;62690;48.420;-4.512;2022-08-20T19:38:42;24.16;46.51
74296;SHT30;62690;48.420;-4.512;2022-08-20T19:41:08;24.05;46.68
74296;SHT30;62690;48.420;-4.512;2022-08-20T19:43:41;24.01;47.16
74296;SHT30;62690;48.420;-4.512;2022-08-20T19:46:06;23.90;47.29
74296;SHT30;62690;48.420;-4.512;2022-08-20T19:54:55;23.67;47.89
74296;SHT30;62690;48.420;-4.512;2022-08-20T19:57:22;23.61;47.95
74296;SHT30;62690;48.420;-4.512;2022-08-20T19:59:56;23.55;47.92
